AirNav   Everest Fuels
 
 522 users online  

8NE6 Franklin's Plainview Airport
Franklin, Nebraska, USA

GOING TO FRANKLIN?


FAA INFORMATION EFFECTIVE 03 NOVEMBER 2022

Location

FAA Identifier: 8NE6
Lat/Long: 40-07-45.5250N 098-56-35.8050W
40-07.758750N 098-56.596750W
40.1293125,-98.9432792
(estimated)
Elevation: 2019 ft. / 615 m (estimated)
Variation: 08E (1985)
From city: 3 miles NE of FRANKLIN, NE
Time zone: UTC -6 (UTC -5 during Daylight Saving Time)
Zip code: 68939

Airport Operations

Airport use: Private use. Permission required prior to landing
Activation date: 12/1977
Control tower: no
ARTCC: MINNEAPOLIS CENTER
FSS: COLUMBUS FLIGHT SERVICE STATION
Attendance: UNATNDD
Wind indicator: yes
Segmented circle: no

Nearby radio navigation aids

VOR radial/distance  VOR name  Freq  Var
EARr170/(35.9)KEARNEY VOR111.2005E
TKOr292/36.9MANKATO VORTAC109.8010E
HSIr212/36.9HASTINGS VOR/DME108.8007E

Airport Services

Runway Information

Runway 16/34

Dimensions: 2000 x 125 ft. / 610 x 38 m
Surface: turf, in good condition
RUNWAY 16  RUNWAY 34
Latitude: 40-07.922000N40-07.595500N
Longitude: 098-56.625333W098-56.568167W
Elevation: 2019.0 ft.1991.0 ft.
Traffic pattern: leftleft

Airport Ownership and Management from official FAA records

Ownership: Privately-owned
Owner: JACK CLINE
1314 J RD
FRANKLIN, NE 68939
Phone 308-425-3617
BUSINESS PHONE.
Manager: JACK CLINE
1314 J RD
FRANKLIN, NE 68939
Phone 308-991-2096

Airport Operational Statistics

Aircraft based on the field: 1
Single engine airplanes: 1
    

Additional Remarks

FOR CD CTC MINNEAPOLIS ARTCC AT 651-463-5588.

Instrument Procedures

There are no published instrument procedures at 8NE6.

Some nearby airports with instrument procedures:

4D9 - Alma Municipal Airport (19 nm W)
7V7 - Red Cloud Municipal Airport (19 nm E)
K82 - Smith Center Municipal Airport (23 nm S)
0V3 - Pioneer Village Field Airport (23 nm N)
KHDE - Brewster Field Airport (26 nm NW)
 
Loc | Ops | Rwys | IFR | FBO | Links
Com | Nav | Svcs | Stats | Notes
Area around 8NE6 (Franklin's Plainview Airport)
 
Road maps at: MapQuest Bing Google
 
Aerial photo
No photo
 
Sectional chart

 
Airport distance calculator
Flying to Franklin's Plainview Airport? Find the distance to fly.

From to 8NE6

Sunrise and sunset
Times for 27-Nov-2022
 Local
(UTC-6)
 Zulu
(UTC)
Morning civil twilight07:0613:06
Sunrise07:3613:36
Sunset17:1123:11
Evening civil twilight17:4123:41

Current date and time
Zulu (UTC)  27-Nov-2022 11:33:14
Local (UTC-6)  27-Nov-2022 05:33:14
 
METAR
KK82 
23nm S 
271115Z AUTO 34015KT 10SM CLR 00/M04 A2986 RMK AO2 T00021035
KHDE 
26nm NW 
271115Z AUTO 34015G21KT 10SM CLR 00/M04 A2987 RMK AO2 T00021042
KEAR 
35nm N 
271056Z AUTO 35017KT 10SM SCT120 01/M04 A2987 RMK AO2 PK WND 34028/1029 SLP121 T00111039 FZRANO
KHSI 
37nm NE 
271053Z AUTO 34012KT 10SM CLR 00/M03 A2986 RMK AO2 SLP118 T00001033
TAF
KEAR 
35nm N 
270520Z 2706/2806 36022G30KT P6SM BKN120 FM271200 35013G20KT P6SM BKN120 FM272000 33009KT P6SM FEW120 FM272200 VRB05KT P6SM SKC
NOTAMs
Click for the latest NOTAMs
NOTAMs are issued by the DoD/FAA and will open in a separate window not controlled by AirNav.

 

 
 

Would you like to see your business listed on this page?

 If your business provides an interesting product or service to pilots, flight crews, aircraft, or users of the Franklin's Plainview Airport, you should consider listing it here.  To start the listing process, click on the button below
 
Add a business
 

Other Pages about Franklin's Plainview Airport

Update a link
 
Copyright © AirNav, LLC. All rights reserved. Privacy Policy  Contact